createdAt,value
2023-03-31T00:00:32.711Z,92.70
2023-03-31T00:02:42.293Z,92.80
2023-03-31T00:04:53.509Z,92.90
2023-03-31T00:07:00.715Z,93.00
2023-03-31T00:09:11.683Z,93.00
2023-03-31T00:11:19.277Z,93.10
2023-03-31T00:13:26.767Z,93.20
2023-03-31T00:15:33.692Z,93.30
2023-03-31T00:17:41.062Z,93.50
2023-03-31T00:19:51.016Z,93.60
2023-03-31T00:21:58.351Z,93.60
2023-03-31T00:24:07.070Z,93.50
2023-03-31T00:26:16.107Z,93.30
2023-03-31T00:28:22.918Z,93.00
2023-03-31T00:30:29.995Z,92.60
2023-03-31T00:32:38.614Z,92.30
2023-03-31T00:34:45.843Z,91.90
2023-03-31T00:36:57.323Z,91.60
2023-03-31T00:39:09.819Z,91.40
2023-03-31T00:41:18.703Z,91.10
2023-03-31T00:43:33.670Z,90.80
2023-03-31T00:45:41.243Z,90.60
2023-03-31T00:47:50.841Z,90.40
2023-03-31T00:49:59.867Z,90.10
2023-03-31T00:52:10.993Z,89.70
2023-03-31T00:54:20.614Z,89.60
2023-03-31T00:56:33.684Z,89.10
2023-03-31T00:58:44.680Z,88.30
2023-03-31T01:00:53.931Z,87.60
2023-03-31T01:03:06.017Z,87.40
2023-03-31T01:05:13.693Z,87.00
2023-03-31T01:07:26.768Z,86.70
2023-03-31T01:09:39.984Z,86.10
2023-03-31T01:11:49.729Z,85.70
2023-03-31T01:13:59.070Z,84.60
2023-03-31T01:16:06.756Z,84.60
2023-03-31T01:18:17.329Z,84.30
2023-03-31T01:20:33.507Z,84.10
2023-03-31T01:23:11.728Z,83.90
2023-03-31T01:25:56.376Z,83.30
2023-03-31T01:28:13.648Z,81.70
2023-03-31T01:31:01.255Z,82.20
2023-03-31T01:33:34.414Z,79.50
2023-03-31T01:36:19.542Z,80.70
2023-03-31T01:39:02.250Z,80.00
2023-03-31T01:41:35.032Z,78.70
2023-03-31T01:43:48.926Z,78.00
2023-03-31T01:46:01.807Z,77.70
2023-03-31T01:48:15.879Z,77.30
2023-03-31T01:50:29.677Z,77.80
2023-03-31T01:52:45.193Z,77.30
2023-03-31T01:54:56.779Z,77.40
2023-03-31T01:57:14.831Z,77.30
2023-03-31T01:59:27.320Z,74.50
2023-03-31T02:01:39.563Z,75.70
2023-03-31T02:03:52.989Z,76.60
2023-03-31T02:06:04.099Z,74.70
2023-03-31T02:08:16.431Z,73.20
2023-03-31T02:10:25.655Z,74.00
2023-03-31T02:12:41.908Z,74.50
2023-03-31T02:14:52.993Z,73.80
2023-03-31T02:17:03.431Z,72.40
2023-03-31T02:19:12.098Z,71.60
2023-03-31T02:21:20.164Z,71.30
2023-03-31T02:23:32.610Z,72.00
2023-03-31T02:25:47.265Z,72.90
2023-03-31T02:27:59.980Z,72.40
2023-03-31T02:30:07.873Z,72.30
2023-03-31T02:32:19.354Z,70.90
2023-03-31T02:34:26.983Z,71.30
2023-03-31T02:36:34.894Z,71.80
2023-03-31T02:38:46.945Z,71.40
2023-03-31T02:40:54.375Z,71.00
2023-03-31T02:43:02.995Z,70.50
2023-03-31T02:45:42.352Z,70.10
2023-03-31T02:47:49.771Z,70.30
2023-03-31T02:49:59.879Z,70.00
2023-03-31T02:52:26.858Z,70.70
2023-03-31T02:54:57.598Z,70.20
2023-03-31T02:57:36.315Z,69.40
2023-03-31T02:59:58.861Z,68.00
2023-03-31T03:02:16.301Z,68.30
2023-03-31T03:04:44.864Z,68.90
2023-03-31T03:07:01.885Z,68.40
2023-03-31T03:09:19.657Z,68.20
2023-03-31T03:11:34.876Z,68.70
2023-03-31T03:13:50.096Z,66.40
2023-03-31T03:16:04.773Z,68.70
2023-03-31T03:18:12.550Z,67.80
2023-03-31T03:20:22.234Z,68.00
2023-03-31T03:22:29.682Z,67.50
2023-03-31T03:24:37.082Z,66.70
2023-03-31T03:26:45.834Z,67.20
2023-03-31T03:28:52.874Z,65.90
2023-03-31T03:31:01.684Z,64.70
2023-03-31T03:33:09.298Z,64.70
2023-03-31T03:35:16.150Z,64.60
2023-03-31T03:37:23.902Z,64.30
2023-03-31T03:39:30.872Z,63.20
2023-03-31T03:41:38.211Z,64.90
2023-03-31T03:43:45.346Z,64.80
2023-03-31T03:45:52.919Z,64.10
2023-03-31T03:48:01.684Z,64.30
2023-03-31T03:50:09.954Z,64.10
2023-03-31T03:52:16.981Z,64.10
2023-03-31T03:54:24.365Z,64.20
2023-03-31T03:56:31.405Z,63.90
2023-03-31T03:58:38.574Z,64.30
2023-03-31T04:00:46.369Z,64.20
2023-03-31T04:02:53.615Z,63.30
2023-03-31T04:05:02.588Z,63.10
2023-03-31T04:07:10.114Z,61.90
2023-03-31T04:09:17.111Z,61.30
2023-03-31T04:11:24.747Z,62.00
2023-03-31T04:13:31.741Z,62.20
2023-03-31T04:15:38.959Z,62.60
2023-03-31T04:17:51.895Z,62.50
2023-03-31T04:20:06.310Z,62.70
2023-03-31T04:22:16.462Z,62.30
2023-03-31T04:24:24.093Z,60.20
2023-03-31T04:26:40.104Z,60.30
2023-03-31T04:28:51.621Z,61.40
2023-03-31T04:30:59.931Z,60.60
2023-03-31T04:33:07.742Z,61.00
2023-03-31T04:35:16.500Z,61.30
2023-03-31T04:37:23.731Z,61.10
2023-03-31T04:39:31.739Z,59.40
2023-03-31T04:41:39.030Z,60.90
2023-03-31T04:43:46.501Z,59.80
2023-03-31T04:45:53.789Z,60.20
2023-03-31T04:48:00.840Z,59.80
2023-03-31T04:50:10.385Z,60.20
2023-03-31T04:52:21.798Z,60.40
2023-03-31T04:54:29.031Z,59.40
2023-03-31T04:56:35.988Z,60.50
2023-03-31T04:58:43.376Z,59.80
2023-03-31T05:00:50.353Z,60.00
2023-03-31T05:02:58.045Z,60.50
2023-03-31T05:05:05.539Z,60.90
2023-03-31T05:07:12.828Z,60.00
2023-03-31T05:09:21.697Z,59.50
2023-03-31T05:11:29.979Z,58.90
2023-03-31T05:13:36.986Z,58.70
2023-03-31T05:15:46.163Z,57.70
2023-03-31T05:17:53.562Z,58.40
2023-03-31T05:20:00.883Z,59.20
2023-03-31T05:22:07.874Z,58.10
2023-03-31T05:24:15.608Z,57.10
2023-03-31T05:26:26.077Z,58.80
2023-03-31T05:28:33.050Z,60.10
2023-03-31T05:30:40.485Z,58.20
2023-03-31T05:32:47.731Z,58.40
2023-03-31T05:34:58.149Z,58.70
2023-03-31T05:37:05.673Z,59.30
2023-03-31T05:39:12.686Z,59.10
2023-03-31T05:41:19.710Z,58.30
2023-03-31T05:43:30.020Z,58.70
2023-03-31T05:45:37.422Z,58.30
2023-03-31T05:47:44.508Z,59.00
2023-03-31T05:49:52.036Z,58.80
2023-03-31T05:51:59.103Z,58.80
2023-03-31T05:54:07.260Z,58.60
2023-03-31T05:56:14.745Z,58.20
2023-03-31T05:58:22.045Z,58.70
2023-03-31T06:00:31.008Z,59.60
2023-03-31T06:02:38.378Z,56.00
2023-03-31T06:04:45.265Z,56.70
2023-03-31T06:06:53.011Z,56.90
2023-03-31T06:08:59.985Z,57.70
2023-03-31T06:11:09.657Z,58.20
2023-03-31T06:13:16.806Z,58.10
2023-03-31T06:15:24.159Z,57.50
2023-03-31T06:17:32.846Z,57.30
2023-03-31T06:19:41.283Z,57.20
2023-03-31T06:21:48.252Z,57.80
2023-03-31T06:23:57.171Z,57.40
2023-03-31T06:26:07.372Z,57.20
2023-03-31T06:28:14.609Z,57.60
2023-03-31T06:30:21.682Z,56.30
2023-03-31T06:32:29.043Z,55.60
2023-03-31T06:34:38.309Z,55.50
2023-03-31T06:36:45.448Z,56.10
2023-03-31T06:38:52.984Z,55.40
2023-03-31T06:41:00.373Z,54.90
2023-03-31T06:43:07.230Z,54.30
2023-03-31T06:45:15.394Z,54.70
2023-03-31T06:47:22.402Z,54.90
2023-03-31T06:49:29.697Z,55.30
2023-03-31T06:51:38.316Z,55.20
2023-03-31T06:53:45.546Z,55.20
2023-03-31T06:55:52.373Z,55.40
2023-03-31T06:57:59.914Z,55.20
2023-03-31T07:00:08.848Z,54.10
2023-03-31T07:02:16.215Z,51.90
2023-03-31T07:04:23.298Z,53.90
2023-03-31T07:06:30.535Z,54.50
2023-03-31T07:08:39.235Z,54.90
2023-03-31T07:10:48.119Z,55.20
2023-03-31T07:12:55.042Z,55.20
2023-03-31T07:15:02.323Z,54.90
2023-03-31T07:17:09.301Z,54.70
2023-03-31T07:19:16.592Z,55.30
2023-03-31T07:21:23.612Z,55.20
2023-03-31T07:23:30.952Z,54.50
2023-03-31T07:25:39.740Z,54.80
2023-03-31T07:27:47.576Z,55.10
2023-03-31T07:29:54.388Z,53.60
2023-03-31T07:32:01.616Z,53.50
2023-03-31T07:34:08.902Z,53.20
2023-03-31T07:36:16.374Z,53.60
2023-03-31T07:38:23.526Z,53.20
2023-03-31T07:40:33.466Z,53.50
2023-03-31T07:42:42.341Z,54.40
2023-03-31T07:44:49.732Z,54.70
2023-03-31T07:46:56.754Z,50.10
2023-03-31T07:49:04.772Z,50.50
2023-03-31T07:51:12.142Z,51.70
2023-03-31T07:53:19.386Z,52.40
2023-03-31T07:55:27.735Z,52.50
2023-03-31T07:57:34.941Z,52.70
2023-03-31T07:59:43.843Z,53.10
2023-03-31T08:01:51.332Z,53.50
2023-03-31T08:03:58.539Z,54.00
2023-03-31T08:06:06.063Z,53.10
2023-03-31T08:08:13.139Z,53.50
2023-03-31T08:10:22.013Z,53.30
2023-03-31T08:12:29.229Z,53.60
2023-03-31T08:14:41.170Z,53.70
2023-03-31T08:16:50.665Z,54.80
2023-03-31T08:21:24.229Z,54.60
2023-03-31T08:23:31.623Z,54.40
2023-03-31T08:25:38.854Z,54.60
2023-03-31T08:27:45.920Z,53.60
2023-03-31T08:29:53.206Z,53.30
2023-03-31T08:32:01.981Z,52.70
2023-03-31T08:34:09.621Z,52.80
2023-03-31T08:36:17.442Z,52.90
2023-03-31T08:38:24.956Z,53.30
2023-03-31T08:40:33.621Z,53.30
2023-03-31T08:42:44.127Z,53.50
2023-03-31T08:45:01.298Z,54.10
2023-03-31T08:47:16.717Z,54.40
2023-03-31T08:49:24.723Z,54.50
2023-03-31T08:51:34.114Z,54.70
2023-03-31T08:53:45.690Z,54.80
2023-03-31T08:55:55.289Z,54.40
2023-03-31T08:58:06.879Z,54.20
2023-03-31T09:00:19.982Z,54.30
2023-03-31T09:02:34.341Z,54.80
2023-03-31T09:04:54.377Z,55.10
2023-03-31T09:07:07.756Z,54.70
2023-03-31T09:09:26.692Z,55.00
2023-03-31T09:11:38.295Z,55.60
2023-03-31T09:14:00.162Z,56.10
2023-03-31T09:16:16.756Z,56.50
2023-03-31T09:18:38.178Z,56.30
2023-03-31T09:20:48.643Z,55.90
2023-03-31T09:23:04.840Z,54.80
2023-03-31T09:25:15.666Z,55.10
2023-03-31T09:27:24.108Z,55.10
2023-03-31T09:29:37.529Z,55.20
2023-03-31T09:31:47.268Z,55.40
2023-03-31T09:34:01.013Z,55.90
2023-03-31T09:36:18.835Z,55.20
2023-03-31T09:38:25.720Z,55.10
2023-03-31T09:40:33.211Z,54.80
2023-03-31T09:42:41.320Z,54.50
2023-03-31T09:44:51.003Z,54.00
2023-03-31T09:46:58.926Z,53.90
2023-03-31T09:49:14.799Z,53.70
2023-03-31T09:51:26.913Z,53.90
2023-03-31T09:53:38.265Z,54.10
2023-03-31T09:55:49.389Z,54.40
2023-03-31T10:01:04.797Z,50.40
2023-03-31T10:03:16.921Z,49.40
2023-03-31T10:05:29.023Z,49.60
2023-03-31T10:07:37.481Z,49.10
2023-03-31T10:09:45.848Z,51.20
2023-03-31T10:12:02.657Z,51.70
2023-03-31T10:14:16.140Z,51.90
2023-03-31T10:16:31.915Z,52.90
2023-03-31T10:18:40.480Z,53.50
2023-03-31T10:20:52.380Z,53.80
2023-03-31T10:22:59.404Z,53.80
2023-03-31T10:25:17.951Z,53.90
2023-03-31T10:27:28.728Z,53.80
2023-03-31T10:29:37.350Z,53.80
2023-03-31T10:31:46.179Z,53.90
2023-03-31T10:33:55.089Z,53.80
2023-03-31T10:36:04.410Z,54.30
2023-03-31T10:38:16.395Z,54.90
2023-03-31T10:40:23.988Z,55.10
2023-03-31T10:42:32.096Z,54.50
2023-03-31T10:44:40.551Z,54.80
2023-03-31T10:46:52.458Z,54.40
2023-03-31T10:48:58.534Z,53.90
2023-03-31T10:51:14.924Z,52.00
2023-03-31T10:53:23.208Z,52.30
2023-03-31T10:55:36.753Z,51.80
2023-03-31T10:57:52.068Z,50.50
2023-03-31T11:00:21.561Z,50.60
2023-03-31T11:02:51.128Z,51.50
2023-03-31T11:05:06.697Z,51.70
2023-03-31T11:07:24.220Z,51.70
2023-03-31T11:09:48.963Z,51.60
2023-03-31T11:12:05.463Z,51.60
2023-03-31T11:14:19.610Z,51.20
2023-03-31T11:16:32.713Z,50.90
2023-03-31T11:19:00.960Z,50.30
2023-03-31T11:21:21.401Z,49.00
2023-03-31T11:23:39.588Z,50.80
2023-03-31T11:25:55.064Z,52.00
2023-03-31T11:28:35.176Z,53.40
2023-03-31T11:30:46.855Z,55.30
2023-03-31T11:33:06.853Z,55.60
2023-03-31T11:35:40.559Z,56.20
2023-03-31T11:38:02.774Z,56.10
2023-03-31T11:40:31.466Z,55.90
2023-03-31T11:42:42.839Z,55.90
2023-03-31T11:44:54.994Z,55.90
2023-03-31T11:47:07.572Z,55.90
2023-03-31T11:49:21.233Z,56.00
2023-03-31T11:51:34.820Z,55.90
2023-03-31T11:53:44.705Z,55.90
2023-03-31T11:55:55.011Z,55.90
2023-03-31T11:58:06.962Z,55.80
2023-03-31T12:00:20.810Z,55.70
2023-03-31T12:02:40.268Z,55.60
2023-03-31T12:04:51.488Z,55.50
2023-03-31T12:07:06.056Z,55.60
2023-03-31T12:09:20.551Z,55.50
2023-03-31T12:11:35.507Z,55.20
2023-03-31T12:13:51.243Z,54.50
2023-03-31T12:16:07.677Z,53.60
2023-03-31T12:18:21.324Z,53.00
2023-03-31T12:20:34.856Z,52.10
2023-03-31T12:22:46.795Z,51.20
2023-03-31T12:24:54.400Z,50.40
2023-03-31T12:27:11.357Z,48.00
2023-03-31T12:29:28.864Z,49.00
2023-03-31T12:31:37.117Z,48.30
2023-03-31T12:33:46.520Z,48.60
2023-03-31T12:36:11.088Z,48.70
2023-03-31T12:38:34.224Z,47.70
2023-03-31T12:40:49.479Z,47.60
2023-03-31T12:43:11.817Z,48.40
2023-03-31T12:45:27.907Z,48.20
2023-03-31T12:47:56.470Z,49.80
2023-03-31T12:50:25.176Z,51.70
2023-03-31T12:52:43.163Z,53.10
2023-03-31T12:55:25.762Z,52.90
2023-03-31T12:57:32.125Z,52.50
2023-03-31T12:59:40.404Z,52.00
2023-03-31T13:02:26.712Z,52.20
2023-03-31T13:04:34.490Z,51.60
2023-03-31T13:07:00.496Z,52.40
2023-03-31T13:09:09.827Z,52.10
2023-03-31T13:11:18.722Z,52.50
2023-03-31T13:13:26.116Z,53.80
2023-03-31T13:15:33.673Z,54.30
2023-03-31T13:17:42.362Z,54.20
2023-03-31T13:19:49.385Z,53.80
2023-03-31T13:21:58.226Z,53.50
2023-03-31T13:24:05.899Z,53.10
2023-03-31T13:26:49.211Z,52.60
2023-03-31T13:29:14.535Z,51.90
2023-03-31T13:31:21.799Z,52.10
2023-03-31T13:33:34.374Z,53.50
2023-03-31T13:35:43.839Z,54.30
2023-03-31T13:38:11.559Z,54.60
2023-03-31T13:40:54.274Z,54.30
2023-03-31T13:43:41.150Z,54.20
2023-03-31T13:48:36.018Z,65.30
2023-03-31T13:51:01.370Z,74.60
2023-03-31T13:53:19.965Z,72.90
2023-03-31T13:55:43.285Z,72.20
2023-03-31T13:58:35.416Z,72.00
2023-03-31T14:00:51.198Z,73.10
2023-03-31T14:03:22.867Z,70.70
2023-03-31T14:05:34.382Z,70.90
2023-03-31T14:07:47.303Z,71.70
2023-03-31T14:09:58.064Z,69.80
2023-03-31T14:12:21.631Z,70.80
2023-03-31T14:14:30.756Z,70.20
2023-03-31T14:16:41.336Z,70.90
2023-03-31T14:18:55.361Z,71.30
2023-03-31T14:21:18.929Z,72.10
2023-03-31T14:23:36.042Z,73.20
2023-03-31T14:25:52.851Z,71.70
2023-03-31T14:28:11.044Z,71.20
2023-03-31T14:30:28.208Z,71.70
2023-03-31T14:32:42.814Z,72.10
2023-03-31T14:35:09.035Z,72.10
2023-03-31T14:37:22.163Z,72.90
2023-03-31T14:39:34.211Z,71.70
2023-03-31T14:41:42.671Z,71.40
2023-03-31T14:43:53.234Z,71.50
2023-03-31T14:46:04.050Z,71.80
2023-03-31T14:48:17.516Z,72.00
2023-03-31T14:50:24.609Z,72.20
2023-03-31T14:52:36.717Z,72.10
2023-03-31T14:54:44.042Z,71.90
2023-03-31T14:56:54.002Z,72.80
2023-03-31T14:59:01.375Z,72.30
2023-03-31T15:01:10.623Z,71.30
2023-03-31T15:03:19.791Z,70.40
2023-03-31T15:05:32.989Z,69.70
2023-03-31T15:07:44.289Z,69.50
2023-03-31T15:09:54.588Z,69.00
2023-03-31T15:12:04.281Z,68.30
2023-03-31T15:14:12.640Z,69.40
2023-03-31T15:16:34.513Z,68.80
2023-03-31T15:18:45.434Z,69.00
2023-03-31T15:20:52.665Z,68.50
2023-03-31T15:23:02.826Z,68.00
2023-03-31T15:25:15.632Z,67.50
2023-03-31T15:27:36.907Z,67.10
2023-03-31T15:29:48.801Z,66.60
2023-03-31T15:31:59.131Z,67.10
2023-03-31T15:34:22.980Z,67.10
2023-03-31T15:36:33.014Z,67.20
2023-03-31T15:38:42.499Z,66.70
2023-03-31T15:40:52.847Z,65.80
2023-03-31T15:43:06.355Z,65.40
2023-03-31T15:45:48.648Z,66.00
2023-03-31T15:47:57.082Z,66.70
2023-03-31T15:50:15.698Z,67.00
2023-03-31T15:52:29.644Z,66.70
2023-03-31T15:54:44.901Z,66.50
2023-03-31T15:56:52.281Z,66.50
2023-03-31T15:59:01.723Z,65.90
2023-03-31T16:01:09.657Z,65.80
2023-03-31T16:03:22.210Z,65.90
2023-03-31T16:08:16.646Z,66.10
2023-03-31T16:10:26.534Z,66.10
2023-03-31T16:12:36.581Z,66.30
2023-03-31T16:14:49.499Z,66.60
2023-03-31T16:17:02.306Z,67.00
2023-03-31T16:19:12.765Z,67.30
2023-03-31T16:21:25.681Z,67.40
2023-03-31T16:23:34.716Z,68.80
2023-03-31T16:25:44.703Z,68.80
2023-03-31T16:27:54.450Z,68.40
2023-03-31T16:30:12.944Z,67.90
2023-03-31T16:32:21.715Z,67.60
2023-03-31T16:34:34.730Z,67.50
2023-03-31T16:36:42.054Z,67.10
2023-03-31T16:38:49.713Z,66.70
2023-03-31T16:40:59.757Z,66.30
2023-03-31T16:43:16.779Z,66.10
2023-03-31T16:45:23.848Z,66.30
2023-03-31T16:49:58.078Z,66.70
2023-03-31T16:52:06.180Z,66.90
2023-03-31T16:54:13.519Z,67.10
2023-03-31T16:56:23.061Z,68.30
2023-03-31T16:58:31.146Z,69.00
2023-03-31T17:00:41.243Z,69.50
2023-03-31T17:02:48.598Z,69.70
2023-03-31T17:04:59.714Z,69.70
2023-03-31T17:07:13.348Z,69.50
2023-03-31T17:09:20.556Z,69.60
2023-03-31T17:11:29.508Z,69.70
2023-03-31T17:13:37.354Z,70.10
2023-03-31T17:15:44.537Z,70.60
2023-03-31T17:17:51.888Z,71.20
2023-03-31T17:20:00.275Z,71.00
2023-03-31T17:22:08.182Z,71.00
2023-03-31T17:24:15.212Z,71.10
2023-03-31T17:26:23.520Z,70.90
2023-03-31T17:28:32.844Z,70.30
2023-03-31T17:30:40.864Z,70.30
2023-03-31T17:32:49.315Z,70.60
2023-03-31T17:34:57.101Z,70.60
2023-03-31T17:37:04.132Z,71.00
2023-03-31T17:39:11.563Z,70.90
2023-03-31T17:41:18.797Z,71.00
2023-03-31T17:43:25.987Z,70.80
2023-03-31T17:45:35.060Z,70.70
2023-03-31T17:47:42.476Z,70.70
2023-03-31T17:49:49.624Z,70.70
2023-03-31T17:51:57.009Z,71.30
2023-03-31T17:54:04.295Z,72.20
2023-03-31T17:56:11.753Z,72.80
2023-03-31T17:58:18.759Z,72.60
2023-03-31T18:00:26.937Z,71.90
2023-03-31T18:02:35.598Z,71.50
2023-03-31T18:04:43.252Z,71.10
2023-03-31T18:06:51.427Z,71.00
2023-03-31T18:09:00.131Z,70.80
2023-03-31T18:11:08.324Z,70.80
2023-03-31T18:13:15.633Z,70.70
2023-03-31T18:15:22.684Z,70.40
2023-03-31T18:17:31.462Z,71.00
2023-03-31T18:19:40.506Z,71.60
2023-03-31T18:21:47.792Z,72.50
2023-03-31T18:23:56.308Z,73.00
2023-03-31T18:26:03.946Z,74.00
2023-03-31T18:28:10.833Z,74.30
2023-03-31T18:30:18.622Z,73.80
2023-03-31T18:32:25.693Z,74.30
2023-03-31T18:34:34.207Z,74.80
2023-03-31T18:36:42.930Z,74.50
2023-03-31T18:38:50.925Z,74.40
2023-03-31T18:40:59.436Z,74.60
2023-03-31T18:43:06.885Z,73.80
2023-03-31T18:45:14.046Z,72.80
2023-03-31T18:47:21.120Z,72.00
2023-03-31T18:49:27.965Z,71.90
2023-03-31T18:51:35.859Z,71.90
2023-03-31T18:53:44.791Z,71.80
2023-03-31T18:55:53.451Z,71.50
2023-03-31T18:58:00.267Z,71.50
2023-03-31T19:00:08.789Z,71.50
2023-03-31T19:02:17.101Z,71.50
2023-03-31T19:04:24.480Z,71.10
2023-03-31T19:06:31.662Z,71.00
2023-03-31T19:08:39.013Z,71.10
2023-03-31T19:10:47.664Z,71.40
2023-03-31T19:12:55.415Z,71.40
2023-03-31T19:15:02.248Z,71.20
2023-03-31T19:17:09.860Z,71.10
2023-03-31T19:19:16.857Z,70.90
2023-03-31T19:21:24.406Z,70.60
2023-03-31T19:23:31.321Z,70.30
2023-03-31T19:25:38.758Z,70.20
2023-03-31T19:27:47.905Z,70.00
2023-03-31T19:29:55.222Z,69.90
2023-03-31T19:32:02.258Z,70.00
2023-03-31T19:34:09.960Z,69.90
2023-03-31T19:36:18.161Z,69.90
2023-03-31T19:38:26.669Z,70.00
2023-03-31T19:40:33.793Z,69.90
2023-03-31T19:42:43.046Z,69.90
2023-03-31T19:44:51.741Z,69.70
2023-03-31T19:46:59.693Z,69.70
2023-03-31T19:49:06.969Z,69.70
2023-03-31T19:51:14.151Z,69.70
2023-03-31T19:53:20.988Z,69.50
2023-03-31T19:55:28.435Z,69.50
2023-03-31T19:57:35.542Z,69.50
2023-03-31T19:59:42.876Z,69.50
2023-03-31T20:01:51.722Z,69.50
2023-03-31T20:03:59.168Z,69.40
2023-03-31T20:06:07.954Z,69.40
2023-03-31T20:08:15.137Z,69.40
2023-03-31T20:10:22.410Z,69.40
2023-03-31T20:12:32.569Z,69.30
2023-03-31T20:14:39.609Z,69.30
2023-03-31T20:16:47.446Z,69.40
2023-03-31T20:18:58.328Z,69.40
2023-03-31T20:21:10.681Z,69.40
2023-03-31T20:23:17.704Z,69.50
2023-03-31T20:25:24.976Z,69.60
2023-03-31T20:27:31.954Z,69.60
2023-03-31T20:29:39.186Z,69.50
2023-03-31T20:31:46.161Z,69.50
2023-03-31T20:33:54.224Z,69.50
2023-03-31T20:36:08.499Z,69.60
2023-03-31T20:38:15.850Z,69.80
2023-03-31T20:40:22.825Z,69.70
2023-03-31T20:42:29.910Z,69.70
2023-03-31T20:44:37.190Z,69.80
2023-03-31T20:46:45.194Z,69.90
2023-03-31T20:48:54.168Z,70.00
2023-03-31T20:51:01.508Z,70.00
2023-03-31T20:53:10.119Z,70.20
2023-03-31T20:55:17.859Z,70.10
2023-03-31T20:57:25.305Z,70.00
2023-03-31T20:59:32.443Z,70.10
2023-03-31T21:01:40.327Z,70.10
2023-03-31T21:03:47.760Z,70.20
2023-03-31T21:05:54.692Z,70.30
2023-03-31T21:08:01.927Z,70.30
2023-03-31T21:10:11.715Z,70.30
2023-03-31T21:12:19.001Z,70.40
2023-03-31T21:14:25.978Z,70.40
2023-03-31T21:16:33.351Z,70.50
2023-03-31T21:18:41.004Z,70.60
2023-03-31T21:20:54.492Z,70.60
2023-03-31T21:23:01.906Z,70.70
2023-03-31T21:25:12.030Z,70.70
2023-03-31T21:27:19.052Z,70.90
2023-03-31T21:29:26.084Z,70.90
2023-03-31T21:31:33.133Z,71.00
2023-03-31T21:33:42.802Z,71.00
2023-03-31T21:35:49.806Z,71.10
2023-03-31T21:37:57.221Z,71.10
2023-03-31T21:40:04.459Z,71.40
2023-03-31T21:42:13.676Z,71.60
2023-03-31T21:44:20.626Z,71.70
2023-03-31T21:46:29.367Z,71.90
2023-03-31T21:48:36.569Z,72.00
2023-03-31T21:50:44.352Z,71.90
2023-03-31T21:52:51.431Z,72.00
2023-03-31T21:54:58.880Z,72.00
2023-03-31T21:57:05.932Z,72.00
2023-03-31T21:59:15.130Z,72.50
2023-03-31T22:01:22.617Z,72.60
2023-03-31T22:03:33.167Z,72.70
2023-03-31T22:05:40.103Z,72.60
2023-03-31T22:07:47.126Z,72.60
2023-03-31T22:09:53.948Z,72.50
2023-03-31T22:12:00.977Z,72.60
2023-03-31T22:14:07.849Z,72.70
2023-03-31T22:16:21.719Z,72.80
2023-03-31T22:18:29.024Z,72.80
2023-03-31T22:20:36.117Z,72.80
2023-03-31T22:22:43.847Z,72.90
2023-03-31T22:24:51.182Z,72.90
2023-03-31T22:26:58.261Z,73.00
2023-03-31T22:29:05.291Z,73.30
2023-03-31T22:31:12.809Z,73.20
2023-03-31T22:33:21.644Z,73.20
2023-03-31T22:35:29.153Z,73.30
2023-03-31T22:37:36.066Z,73.50
2023-03-31T22:39:43.551Z,73.40
2023-03-31T22:41:52.577Z,73.50
2023-03-31T22:43:59.907Z,73.40
2023-03-31T22:46:07.912Z,73.30
2023-03-31T22:48:15.090Z,73.40
2023-03-31T22:50:23.835Z,73.60
2023-03-31T22:52:31.204Z,73.60
2023-03-31T22:54:38.069Z,73.60
2023-03-31T22:56:45.722Z,73.60
2023-03-31T22:58:53.197Z,73.60
2023-03-31T23:01:01.333Z,73.70
2023-03-31T23:03:08.587Z,73.80
2023-03-31T23:05:15.881Z,74.00
2023-03-31T23:07:24.649Z,74.10
2023-03-31T23:09:31.926Z,74.10
2023-03-31T23:11:39.156Z,74.10
2023-03-31T23:13:46.188Z,74.20
2023-03-31T23:15:53.063Z,74.30
2023-03-31T23:18:00.419Z,74.30
2023-03-31T23:20:08.199Z,74.40
2023-03-31T23:22:15.596Z,74.60
2023-03-31T23:24:25.641Z,74.60
2023-03-31T23:26:33.836Z,74.70
2023-03-31T23:28:41.325Z,74.70
2023-03-31T23:30:57.719Z,74.50
2023-03-31T23:33:04.646Z,74.70
2023-03-31T23:35:12.542Z,74.80
2023-03-31T23:37:20.050Z,74.70
2023-03-31T23:39:29.006Z,74.60
2023-03-31T23:41:36.287Z,74.70
2023-03-31T23:43:43.878Z,74.80
2023-03-31T23:45:50.940Z,75.00
2023-03-31T23:47:58.140Z,75.20
2023-03-31T23:50:05.276Z,75.20
2023-03-31T23:52:12.653Z,74.90
2023-03-31T23:54:19.638Z,75.10
2023-03-31T23:56:29.833Z,75.00
2023-03-31T23:58:37.021Z,75.10
